sensor_id;sensor_type;location;lat;lon;timestamp;temperature;humidity
5174;DHT22;2606;50.934;6.934;2022-09-13T00:00:52;19.50;99.90
5174;DHT22;2606;50.934;6.934;2022-09-13T00:03:18;19.50;99.90
5174;DHT22;2606;50.934;6.934;2022-09-13T00:05:45;19.40;99.90
5174;DHT22;2606;50.934;6.934;2022-09-13T00:08:11;19.40;99.90
5174;DHT22;2606;50.934;6.934;2022-09-13T00:10:38;19.40;99.90
5174;DHT22;2606;50.934;6.934;2022-09-13T00:13:05;19.40;99.90
5174;DHT22;2606;50.934;6.934;2022-09-13T00:15:31;19.30;99.90
5174;DHT22;2606;50.934;6.934;2022-09-13T00:17:57;19.30;99.90
5174;DHT22;2606;50.934;6.934;2022-09-13T00:20:24;19.30;99.90
5174;DHT22;2606;50.934;6.934;2022-09-13T00:22:49;19.20;99.90
5174;DHT22;2606;50.934;6.934;2022-09-13T00:25:16;19.20;99.90
5174;DHT22;2606;50.934;6.934;2022-09-13T00:27:42;19.20;99.90
5174;DHT22;2606;50.934;6.934;2022-09-13T00:30:09;19.20;99.90
5174;DHT22;2606;50.934;6.934;2022-09-13T00:32:35;19.10;99.90
5174;DHT22;2606;50.934;6.934;2022-09-13T00:35:02;19.10;99.90
5174;DHT22;2606;50.934;6.934;2022-09-13T00:37:28;19.10;99.90
5174;DHT22;2606;50.934;6.934;2022-09-13T00:39:54;19.10;99.90
5174;DHT22;2606;50.934;6.934;2022-09-13T00:42:25;19.10;99.90
5174;DHT22;2606;50.934;6.934;2022-09-13T00:47:36;19.00;99.90
5174;DHT22;2606;50.934;6.934;2022-09-13T00:53:02;19.00;99.90
5174;DHT22;2606;50.934;6.934;2022-09-13T00:55:49;18.90;99.90
5174;DHT22;2606;50.934;6.934;2022-09-13T00:58:21;18.90;99.90
5174;DHT22;2606;50.934;6.934;2022-09-13T01:00:50;18.90;99.90
5174;DHT22;2606;50.934;6.934;2022-09-13T01:03:18;18.90;99.90
5174;DHT22;2606;50.934;6.934;2022-09-13T01:05:51;18.90;99.90
5174;DHT22;2606;50.934;6.934;2022-09-13T01:08:18;18.80;99.90
5174;DHT22;2606;50.934;6.934;2022-09-13T01:10:50;18.80;99.90
5174;DHT22;2606;50.934;6.934;2022-09-13T01:13:21;18.80;99.90
5174;DHT22;2606;50.934;6.934;2022-09-13T01:15:48;18.80;99.90
5174;DHT22;2606;50.934;6.934;2022-09-13T01:18:14;18.80;99.90
5174;DHT22;2606;50.934;6.934;2022-09-13T01:23:59;18.80;99.90
5174;DHT22;2606;50.934;6.934;2022-09-13T01:34:53;18.70;99.90
5174;DHT22;2606;50.934;6.934;2022-09-13T01:40:15;18.70;99.90
5174;DHT22;2606;50.934;6.934;2022-09-13T01:45:52;18.60;99.90
5174;DHT22;2606;50.934;6.934;2022-09-13T01:48:33;18.60;99.90
5174;DHT22;2606;50.934;6.934;2022-09-13T01:54:13;18.60;99.90
5174;DHT22;2606;50.934;6.934;2022-09-13T01:56:59;18.60;99.90
5174;DHT22;2606;50.934;6.934;2022-09-13T01:59:48;18.60;99.90
5174;DHT22;2606;50.934;6.934;2022-09-13T02:02:48;18.60;99.90
5174;DHT22;2606;50.934;6.934;2022-09-13T02:05:22;18.60;99.90
5174;DHT22;2606;50.934;6.934;2022-09-13T02:07:58;18.60;99.90
5174;DHT22;2606;50.934;6.934;2022-09-13T02:10:32;18.60;99.90
5174;DHT22;2606;50.934;6.934;2022-09-13T02:12:58;18.60;99.90
5174;DHT22;2606;50.934;6.934;2022-09-13T02:15:31;18.60;99.90
5174;DHT22;2606;50.934;6.934;2022-09-13T02:18:08;18.50;99.90
5174;DHT22;2606;50.934;6.934;2022-09-13T02:20:37;18.50;99.90
5174;DHT22;2606;50.934;6.934;2022-09-13T02:23:09;18.50;99.90
5174;DHT22;2606;50.934;6.934;2022-09-13T02:25:37;18.50;99.90
5174;DHT22;2606;50.934;6.934;2022-09-13T02:28:09;18.50;99.90
5174;DHT22;2606;50.934;6.934;2022-09-13T02:30:39;18.50;99.90
5174;DHT22;2606;50.934;6.934;2022-09-13T02:33:15;18.50;99.90
5174;DHT22;2606;50.934;6.934;2022-09-13T02:38:39;18.50;99.90
5174;DHT22;2606;50.934;6.934;2022-09-13T02:41:18;18.50;99.90
5174;DHT22;2606;50.934;6.934;2022-09-13T02:43:49;18.50;99.90
5174;DHT22;2606;50.934;6.934;2022-09-13T02:52:06;18.50;99.90
5174;DHT22;2606;50.934;6.934;2022-09-13T02:57:47;18.40;99.90
5174;DHT22;2606;50.934;6.934;2022-09-13T03:00:15;18.40;99.90
5174;DHT22;2606;50.934;6.934;2022-09-13T03:02:42;18.40;99.90
5174;DHT22;2606;50.934;6.934;2022-09-13T03:05:08;18.40;99.90
5174;DHT22;2606;50.934;6.934;2022-09-13T03:07:34;18.40;99.90
5174;DHT22;2606;50.934;6.934;2022-09-13T03:10:03;18.40;99.90
5174;DHT22;2606;50.934;6.934;2022-09-13T03:15:50;18.40;99.90
5174;DHT22;2606;50.934;6.934;2022-09-13T03:21:31;18.50;99.90
5174;DHT22;2606;50.934;6.934;2022-09-13T03:29:41;18.50;99.90
5174;DHT22;2606;50.934;6.934;2022-09-13T03:38:01;18.60;99.90
5174;DHT22;2606;50.934;6.934;2022-09-13T03:43:06;18.60;99.90
5174;DHT22;2606;50.934;6.934;2022-09-13T03:45:37;18.60;99.90
5174;DHT22;2606;50.934;6.934;2022-09-13T03:48:06;18.60;99.90
5174;DHT22;2606;50.934;6.934;2022-09-13T03:50:32;18.60;99.90
5174;DHT22;2606;50.934;6.934;2022-09-13T03:53:08;18.60;99.90
5174;DHT22;2606;50.934;6.934;2022-09-13T03:55:38;18.60;99.90
5174;DHT22;2606;50.934;6.934;2022-09-13T03:58:05;18.60;99.90
5174;DHT22;2606;50.934;6.934;2022-09-13T04:00:30;18.60;99.90
5174;DHT22;2606;50.934;6.934;2022-09-13T04:02:56;18.60;99.90
5174;DHT22;2606;50.934;6.934;2022-09-13T04:05:22;18.60;99.90
5174;DHT22;2606;50.934;6.934;2022-09-13T04:07:47;18.60;99.90
5174;DHT22;2606;50.934;6.934;2022-09-13T04:10:13;18.60;99.90
5174;DHT22;2606;50.934;6.934;2022-09-13T04:12:39;18.60;99.90
5174;DHT22;2606;50.934;6.934;2022-09-13T04:15:06;18.50;99.90
5174;DHT22;2606;50.934;6.934;2022-09-13T04:17:32;18.50;99.90
5174;DHT22;2606;50.934;6.934;2022-09-13T04:19:57;18.50;99.90
5174;DHT22;2606;50.934;6.934;2022-09-13T04:22:23;18.50;99.90
5174;DHT22;2606;50.934;6.934;2022-09-13T04:24:48;18.50;99.90
5174;DHT22;2606;50.934;6.934;2022-09-13T04:27:14;18.50;99.90
5174;DHT22;2606;50.934;6.934;2022-09-13T04:29:39;18.50;99.90
5174;DHT22;2606;50.934;6.934;2022-09-13T04:32:05;18.50;99.90
5174;DHT22;2606;50.934;6.934;2022-09-13T04:34:31;18.50;99.90
5174;DHT22;2606;50.934;6.934;2022-09-13T04:36:56;18.50;99.90
5174;DHT22;2606;50.934;6.934;2022-09-13T04:39:22;18.50;99.90
5174;DHT22;2606;50.934;6.934;2022-09-13T04:41:51;18.50;99.90
5174;DHT22;2606;50.934;6.934;2022-09-13T04:44:19;18.50;99.90
5174;DHT22;2606;50.934;6.934;2022-09-13T04:46:46;18.50;99.90
5174;DHT22;2606;50.934;6.934;2022-09-13T04:49:13;18.50;99.90
5174;DHT22;2606;50.934;6.934;2022-09-13T04:51:39;18.40;99.90
5174;DHT22;2606;50.934;6.934;2022-09-13T04:54:05;18.40;99.90
5174;DHT22;2606;50.934;6.934;2022-09-13T04:56:30;18.50;99.90
5174;DHT22;2606;50.934;6.934;2022-09-13T04:58:56;18.40;99.90
5174;DHT22;2606;50.934;6.934;2022-09-13T05:01:22;18.40;99.90
5174;DHT22;2606;50.934;6.934;2022-09-13T05:03:49;18.40;99.90
5174;DHT22;2606;50.934;6.934;2022-09-13T05:06:16;18.40;99.90
5174;DHT22;2606;50.934;6.934;2022-09-13T05:08:43;18.30;99.90
5174;DHT22;2606;50.934;6.934;2022-09-13T05:11:09;18.40;99.90
5174;DHT22;2606;50.934;6.934;2022-09-13T05:13:35;18.30;99.90
5174;DHT22;2606;50.934;6.934;2022-09-13T05:16:06;18.40;99.90
5174;DHT22;2606;50.934;6.934;2022-09-13T05:18:34;18.40;99.90
5174;DHT22;2606;50.934;6.934;2022-09-13T05:21:02;18.30;99.90
5174;DHT22;2606;50.934;6.934;2022-09-13T05:23:28;18.30;99.90
5174;DHT22;2606;50.934;6.934;2022-09-13T05:25:55;18.30;99.90
5174;DHT22;2606;50.934;6.934;2022-09-13T05:28:22;18.40;99.90
5174;DHT22;2606;50.934;6.934;2022-09-13T05:31:01;18.40;99.90
5174;DHT22;2606;50.934;6.934;2022-09-13T05:33:30;18.40;99.90
5174;DHT22;2606;50.934;6.934;2022-09-13T05:35:56;18.40;99.90
5174;DHT22;2606;50.934;6.934;2022-09-13T05:38:22;18.40;99.90
5174;DHT22;2606;50.934;6.934;2022-09-13T05:40:52;18.40;99.90
5174;DHT22;2606;50.934;6.934;2022-09-13T05:43:19;18.40;99.90
5174;DHT22;2606;50.934;6.934;2022-09-13T05:45:44;18.40;99.90
5174;DHT22;2606;50.934;6.934;2022-09-13T05:48:10;18.40;99.90
5174;DHT22;2606;50.934;6.934;2022-09-13T05:50:36;18.40;99.90
5174;DHT22;2606;50.934;6.934;2022-09-13T05:53:02;18.40;99.90
5174;DHT22;2606;50.934;6.934;2022-09-13T05:55:28;18.50;99.90
5174;DHT22;2606;50.934;6.934;2022-09-13T05:57:55;18.50;99.90
5174;DHT22;2606;50.934;6.934;2022-09-13T06:00:21;18.50;99.90
5174;DHT22;2606;50.934;6.934;2022-09-13T06:02:46;18.50;99.90
5174;DHT22;2606;50.934;6.934;2022-09-13T06:05:12;18.60;99.90
5174;DHT22;2606;50.934;6.934;2022-09-13T06:07:41;18.60;99.90
5174;DHT22;2606;50.934;6.934;2022-09-13T06:10:07;18.60;99.90
5174;DHT22;2606;50.934;6.934;2022-09-13T06:12:33;18.60;99.90
5174;DHT22;2606;50.934;6.934;2022-09-13T06:14:59;18.60;99.90
5174;DHT22;2606;50.934;6.934;2022-09-13T06:17:24;18.60;99.90
5174;DHT22;2606;50.934;6.934;2022-09-13T06:19:50;18.60;99.90
5174;DHT22;2606;50.934;6.934;2022-09-13T06:22:16;18.60;99.90
5174;DHT22;2606;50.934;6.934;2022-09-13T06:24:41;18.70;99.90
5174;DHT22;2606;50.934;6.934;2022-09-13T06:27:07;18.70;99.90
5174;DHT22;2606;50.934;6.934;2022-09-13T06:29:34;18.60;99.90
5174;DHT22;2606;50.934;6.934;2022-09-13T06:32:00;18.70;99.90
5174;DHT22;2606;50.934;6.934;2022-09-13T06:34:26;18.70;99.90
5174;DHT22;2606;50.934;6.934;2022-09-13T06:36:52;18.70;99.90
5174;DHT22;2606;50.934;6.934;2022-09-13T06:39:18;18.70;99.90
5174;DHT22;2606;50.934;6.934;2022-09-13T06:41:43;18.70;99.90
5174;DHT22;2606;50.934;6.934;2022-09-13T06:44:09;18.70;99.90
5174;DHT22;2606;50.934;6.934;2022-09-13T06:46:35;18.70;99.90
5174;DHT22;2606;50.934;6.934;2022-09-13T06:49:03;18.80;99.90
5174;DHT22;2606;50.934;6.934;2022-09-13T06:51:29;18.80;99.90
5174;DHT22;2606;50.934;6.934;2022-09-13T06:53:55;18.80;99.90
5174;DHT22;2606;50.934;6.934;2022-09-13T06:56:31;18.80;99.90
5174;DHT22;2606;50.934;6.934;2022-09-13T06:58:59;18.90;99.90
5174;DHT22;2606;50.934;6.934;2022-09-13T07:01:30;18.90;99.90
5174;DHT22;2606;50.934;6.934;2022-09-13T07:04:03;19.00;99.90
5174;DHT22;2606;50.934;6.934;2022-09-13T07:06:31;19.00;99.90
5174;DHT22;2606;50.934;6.934;2022-09-13T07:08:59;19.10;99.90
5174;DHT22;2606;50.934;6.934;2022-09-13T07:11:28;19.10;99.90
5174;DHT22;2606;50.934;6.934;2022-09-13T07:13:55;19.10;99.90
5174;DHT22;2606;50.934;6.934;2022-09-13T07:16:26;19.20;99.90
5174;DHT22;2606;50.934;6.934;2022-09-13T07:18:55;19.20;99.90
5174;DHT22;2606;50.934;6.934;2022-09-13T07:21:22;19.30;99.90
5174;DHT22;2606;50.934;6.934;2022-09-13T07:23:48;19.30;99.90
5174;DHT22;2606;50.934;6.934;2022-09-13T07:26:14;19.40;99.90
5174;DHT22;2606;50.934;6.934;2022-09-13T07:28:41;19.40;99.90
5174;DHT22;2606;50.934;6.934;2022-09-13T07:33:35;19.50;99.90
5174;DHT22;2606;50.934;6.934;2022-09-13T07:36:01;19.60;99.90
5174;DHT22;2606;50.934;6.934;2022-09-13T07:38:31;19.60;99.90
5174;DHT22;2606;50.934;6.934;2022-09-13T07:40:57;19.70;99.90
5174;DHT22;2606;50.934;6.934;2022-09-13T07:43:24;19.80;99.90
5174;DHT22;2606;50.934;6.934;2022-09-13T07:46:01;19.90;99.90
5174;DHT22;2606;50.934;6.934;2022-09-13T07:48:28;20.00;99.90
5174;DHT22;2606;50.934;6.934;2022-09-13T07:51:05;20.10;99.90
5174;DHT22;2606;50.934;6.934;2022-09-13T07:53:31;20.10;99.90
5174;DHT22;2606;50.934;6.934;2022-09-13T07:56:05;20.20;99.90
5174;DHT22;2606;50.934;6.934;2022-09-13T07:58:32;20.30;99.90
5174;DHT22;2606;50.934;6.934;2022-09-13T08:01:07;20.30;99.90
5174;DHT22;2606;50.934;6.934;2022-09-13T08:03:35;20.40;99.90
5174;DHT22;2606;50.934;6.934;2022-09-13T08:06:01;20.50;99.90
5174;DHT22;2606;50.934;6.934;2022-09-13T08:08:28;20.60;99.90
5174;DHT22;2606;50.934;6.934;2022-09-13T08:10:54;20.60;99.90
5174;DHT22;2606;50.934;6.934;2022-09-13T08:13:20;20.70;99.90
5174;DHT22;2606;50.934;6.934;2022-09-13T08:15:45;20.70;99.90
5174;DHT22;2606;50.934;6.934;2022-09-13T08:18:11;20.80;99.90
5174;DHT22;2606;50.934;6.934;2022-09-13T08:20:37;20.90;99.90
5174;DHT22;2606;50.934;6.934;2022-09-13T08:23:04;21.00;99.90
5174;DHT22;2606;50.934;6.934;2022-09-13T08:25:34;21.10;99.90
5174;DHT22;2606;50.934;6.934;2022-09-13T08:28:15;21.10;99.90
5174;DHT22;2606;50.934;6.934;2022-09-13T08:30:41;21.20;99.90
5174;DHT22;2606;50.934;6.934;2022-09-13T08:33:08;21.30;99.90
5174;DHT22;2606;50.934;6.934;2022-09-13T08:35:35;21.40;99.90
5174;DHT22;2606;50.934;6.934;2022-09-13T08:38:03;21.50;99.90
5174;DHT22;2606;50.934;6.934;2022-09-13T08:40:31;21.60;99.90
5174;DHT22;2606;50.934;6.934;2022-09-13T08:45:31;21.70;99.90
5174;DHT22;2606;50.934;6.934;2022-09-13T08:48:18;21.80;99.80
5174;DHT22;2606;50.934;6.934;2022-09-13T08:50:46;21.90;99.60
5174;DHT22;2606;50.934;6.934;2022-09-13T08:56:08;22.10;99.30
5174;DHT22;2606;50.934;6.934;2022-09-13T08:58:49;22.20;99.00
5174;DHT22;2606;50.934;6.934;2022-09-13T09:04:42;22.50;98.10
5174;DHT22;2606;50.934;6.934;2022-09-13T09:07:16;22.70;98.10
5174;DHT22;2606;50.934;6.934;2022-09-13T09:12:35;23.10;96.70
5174;DHT22;2606;50.934;6.934;2022-09-13T09:17:53;23.30;96.60
5174;DHT22;2606;50.934;6.934;2022-09-13T09:22:46;23.70;95.90
5174;DHT22;2606;50.934;6.934;2022-09-13T09:25:13;24.00;95.30
5174;DHT22;2606;50.934;6.934;2022-09-13T09:27:38;24.20;94.20
5174;DHT22;2606;50.934;6.934;2022-09-13T09:30:05;24.30;93.60
5174;DHT22;2606;50.934;6.934;2022-09-13T09:38:13;24.80;93.10
5174;DHT22;2606;50.934;6.934;2022-09-13T09:40:43;25.10;92.50
5174;DHT22;2606;50.934;6.934;2022-09-13T09:43:19;25.20;91.70
5174;DHT22;2606;50.934;6.934;2022-09-13T09:45:48;25.40;91.60
5174;DHT22;2606;50.934;6.934;2022-09-13T09:48:20;25.60;91.40
5174;DHT22;2606;50.934;6.934;2022-09-13T09:50:49;25.80;90.70
5174;DHT22;2606;50.934;6.934;2022-09-13T09:53:30;26.00;90.60
5174;DHT22;2606;50.934;6.934;2022-09-13T09:58:45;26.30;89.90
5174;DHT22;2606;50.934;6.934;2022-09-13T10:04:35;27.00;86.90
5174;DHT22;2606;50.934;6.934;2022-09-13T10:06:38;27.40;85.70
5174;DHT22;2606;50.934;6.934;2022-09-13T10:17:02;28.90;79.10
5174;DHT22;2606;50.934;6.934;2022-09-13T10:19:30;29.20;76.40
5174;DHT22;2606;50.934;6.934;2022-09-13T10:22:14;29.10;75.00
5174;DHT22;2606;50.934;6.934;2022-09-13T10:24:40;28.90;75.10
5174;DHT22;2606;50.934;6.934;2022-09-13T10:27:31;28.90;75.00
5174;DHT22;2606;50.934;6.934;2022-09-13T10:29:59;29.10;75.50
5174;DHT22;2606;50.934;6.934;2022-09-13T10:32:27;29.30;74.20
5174;DHT22;2606;50.934;6.934;2022-09-13T10:34:54;29.50;72.50
5174;DHT22;2606;50.934;6.934;2022-09-13T10:37:27;29.50;71.50
5174;DHT22;2606;50.934;6.934;2022-09-13T10:40:02;29.20;71.40
5174;DHT22;2606;50.934;6.934;2022-09-13T10:42:30;29.00;71.90
5174;DHT22;2606;50.934;6.934;2022-09-13T10:45:05;28.70;72.90
5174;DHT22;2606;50.934;6.934;2022-09-13T10:47:32;28.50;73.80
5174;DHT22;2606;50.934;6.934;2022-09-13T10:52:45;28.20;74.50
5174;DHT22;2606;50.934;6.934;2022-09-13T11:00:11;27.80;76.20
5174;DHT22;2606;50.934;6.934;2022-09-13T11:05:29;27.80;77.30
5174;DHT22;2606;50.934;6.934;2022-09-13T11:13:50;28.10;76.40
5174;DHT22;2606;50.934;6.934;2022-09-13T11:22:05;28.20;75.20
5174;DHT22;2606;50.934;6.934;2022-09-13T11:30:23;28.60;73.40
5174;DHT22;2606;50.934;6.934;2022-09-13T11:49:40;28.40;74.30
5174;DHT22;2606;50.934;6.934;2022-09-13T11:57:51;29.90;67.00
5174;DHT22;2606;50.934;6.934;2022-09-13T12:00:42;30.10;65.10
5174;DHT22;2606;50.934;6.934;2022-09-13T12:03:18;30.10;63.80
5174;DHT22;2606;50.934;6.934;2022-09-13T12:05:47;30.10;65.00
5174;DHT22;2606;50.934;6.934;2022-09-13T12:08:19;30.10;64.20
5174;DHT22;2606;50.934;6.934;2022-09-13T12:10:54;30.20;64.30
5174;DHT22;2606;50.934;6.934;2022-09-13T12:13:25;30.30;64.50
5174;DHT22;2606;50.934;6.934;2022-09-13T12:16:01;30.50;63.40
5174;DHT22;2606;50.934;6.934;2022-09-13T12:18:33;30.60;62.90
5174;DHT22;2606;50.934;6.934;2022-09-13T12:21:09;30.60;62.80
5174;DHT22;2606;50.934;6.934;2022-09-13T12:23:38;30.80;62.50
5174;DHT22;2606;50.934;6.934;2022-09-13T12:26:14;31.00;61.50
5174;DHT22;2606;50.934;6.934;2022-09-13T12:28:56;31.40;60.70
5174;DHT22;2606;50.934;6.934;2022-09-13T12:31:26;31.60;59.10
5174;DHT22;2606;50.934;6.934;2022-09-13T12:33:52;31.80;58.10
5174;DHT22;2606;50.934;6.934;2022-09-13T12:39:36;32.00;57.50
5174;DHT22;2606;50.934;6.934;2022-09-13T12:42:34;32.00;56.60
5174;DHT22;2606;50.934;6.934;2022-09-13T12:50:29;32.00;56.20
5174;DHT22;2606;50.934;6.934;2022-09-13T12:53:11;32.10;56.20
5174;DHT22;2606;50.934;6.934;2022-09-13T12:58:44;32.20;54.90
5174;DHT22;2606;50.934;6.934;2022-09-13T13:01:16;32.20;55.10
5174;DHT22;2606;50.934;6.934;2022-09-13T13:04:09;31.80;55.50
5174;DHT22;2606;50.934;6.934;2022-09-13T13:06:56;31.40;56.10
5174;DHT22;2606;50.934;6.934;2022-09-13T13:09:39;31.10;57.10
5174;DHT22;2606;50.934;6.934;2022-09-13T13:12:12;30.70;57.70
5174;DHT22;2606;50.934;6.934;2022-09-13T13:14:50;30.50;58.60
5174;DHT22;2606;50.934;6.934;2022-09-13T13:17:48;30.10;59.40
5174;DHT22;2606;50.934;6.934;2022-09-13T13:23:46;29.90;59.60
5174;DHT22;2606;50.934;6.934;2022-09-13T13:33:50;29.20;61.60
5174;DHT22;2606;50.934;6.934;2022-09-13T13:36:26;29.20;62.10
5174;DHT22;2606;50.934;6.934;2022-09-13T13:38:56;29.20;62.00
5174;DHT22;2606;50.934;6.934;2022-09-13T13:46:41;29.00;62.70
5174;DHT22;2606;50.934;6.934;2022-09-13T14:00:22;28.70;64.50
5174;DHT22;2606;50.934;6.934;2022-09-13T14:08:07;28.70;64.50
5174;DHT22;2606;50.934;6.934;2022-09-13T14:13:33;28.80;64.60
5174;DHT22;2606;50.934;6.934;2022-09-13T14:21:25;28.80;65.40
5174;DHT22;2606;50.934;6.934;2022-09-13T14:24:07;28.80;65.50
5174;DHT22;2606;50.934;6.934;2022-09-13T14:26:34;28.80;66.00
5174;DHT22;2606;50.934;6.934;2022-09-13T14:28:59;28.80;66.10
5174;DHT22;2606;50.934;6.934;2022-09-13T14:31:25;28.70;65.90
5174;DHT22;2606;50.934;6.934;2022-09-13T14:33:51;28.70;66.30
5174;DHT22;2606;50.934;6.934;2022-09-13T14:36:21;28.60;65.80
5174;DHT22;2606;50.934;6.934;2022-09-13T14:38:58;28.50;66.50
5174;DHT22;2606;50.934;6.934;2022-09-13T14:41:36;28.60;67.00
5174;DHT22;2606;50.934;6.934;2022-09-13T14:44:22;28.50;66.90
5174;DHT22;2606;50.934;6.934;2022-09-13T14:46:55;28.40;67.40
5174;DHT22;2606;50.934;6.934;2022-09-13T14:49:32;28.40;67.40
5174;DHT22;2606;50.934;6.934;2022-09-13T14:52:07;28.30;67.60
5174;DHT22;2606;50.934;6.934;2022-09-13T14:54:40;28.30;67.70
5174;DHT22;2606;50.934;6.934;2022-09-13T14:57:24;28.30;67.90
5174;DHT22;2606;50.934;6.934;2022-09-13T14:59:59;28.20;68.10
5174;DHT22;2606;50.934;6.934;2022-09-13T15:02:48;28.30;68.40
5174;DHT22;2606;50.934;6.934;2022-09-13T15:05:19;28.30;68.60
5174;DHT22;2606;50.934;6.934;2022-09-13T15:07:46;28.30;69.00
5174;DHT22;2606;50.934;6.934;2022-09-13T15:13:01;28.20;69.40
5174;DHT22;2606;50.934;6.934;2022-09-13T15:15:35;28.10;69.30
5174;DHT22;2606;50.934;6.934;2022-09-13T15:18:03;28.00;69.40
5174;DHT22;2606;50.934;6.934;2022-09-13T15:20:51;27.90;69.20
5174;DHT22;2606;50.934;6.934;2022-09-13T15:26:20;27.90;69.90
5174;DHT22;2606;50.934;6.934;2022-09-13T15:28:51;27.90;70.10
5174;DHT22;2606;50.934;6.934;2022-09-13T15:31:29;27.90;70.40
5174;DHT22;2606;50.934;6.934;2022-09-13T15:36:43;27.80;70.60
5174;DHT22;2606;50.934;6.934;2022-09-13T15:39:14;27.80;71.20
5174;DHT22;2606;50.934;6.934;2022-09-13T15:41:57;27.70;71.50
5174;DHT22;2606;50.934;6.934;2022-09-13T15:44:23;27.60;72.00
5174;DHT22;2606;50.934;6.934;2022-09-13T15:46:52;27.60;72.50
5174;DHT22;2606;50.934;6.934;2022-09-13T15:49:20;27.50;73.50
5174;DHT22;2606;50.934;6.934;2022-09-13T15:51:57;27.50;75.80
5174;DHT22;2606;50.934;6.934;2022-09-13T15:54:26;27.40;78.00
5174;DHT22;2606;50.934;6.934;2022-09-13T15:56:55;27.40;78.70
5174;DHT22;2606;50.934;6.934;2022-09-13T15:59:21;27.30;80.00
5174;DHT22;2606;50.934;6.934;2022-09-13T16:01:48;27.20;81.40
5174;DHT22;2606;50.934;6.934;2022-09-13T16:04:14;27.20;81.40
5174;DHT22;2606;50.934;6.934;2022-09-13T16:06:40;27.20;81.50
5174;DHT22;2606;50.934;6.934;2022-09-13T16:09:17;27.10;81.90
5174;DHT22;2606;50.934;6.934;2022-09-13T16:11:44;27.00;82.30
5174;DHT22;2606;50.934;6.934;2022-09-13T16:14:09;27.00;82.90
5174;DHT22;2606;50.934;6.934;2022-09-13T16:16:35;26.90;83.30
5174;DHT22;2606;50.934;6.934;2022-09-13T16:19:01;26.80;83.60
5174;DHT22;2606;50.934;6.934;2022-09-13T16:21:26;26.80;83.90
5174;DHT22;2606;50.934;6.934;2022-09-13T16:23:54;26.70;84.00
5174;DHT22;2606;50.934;6.934;2022-09-13T16:26:19;26.60;85.10
5174;DHT22;2606;50.934;6.934;2022-09-13T16:28:45;26.50;84.60
5174;DHT22;2606;50.934;6.934;2022-09-13T16:31:10;26.50;85.00
5174;DHT22;2606;50.934;6.934;2022-09-13T16:33:36;26.40;85.40
5174;DHT22;2606;50.934;6.934;2022-09-13T16:36:01;26.40;85.50
5174;DHT22;2606;50.934;6.934;2022-09-13T16:38:27;26.30;85.70
5174;DHT22;2606;50.934;6.934;2022-09-13T16:40:53;26.20;86.60
5174;DHT22;2606;50.934;6.934;2022-09-13T16:43:18;26.20;86.30
5174;DHT22;2606;50.934;6.934;2022-09-13T16:45:44;26.10;87.00
5174;DHT22;2606;50.934;6.934;2022-09-13T16:48:10;26.00;89.10
5174;DHT22;2606;50.934;6.934;2022-09-13T16:50:39;25.90;90.00
5174;DHT22;2606;50.934;6.934;2022-09-13T16:53:05;25.90;90.80
5174;DHT22;2606;50.934;6.934;2022-09-13T16:55:30;25.90;91.20
5174;DHT22;2606;50.934;6.934;2022-09-13T16:57:57;25.80;91.50
5174;DHT22;2606;50.934;6.934;2022-09-13T17:00:22;25.70;92.20
5174;DHT22;2606;50.934;6.934;2022-09-13T17:02:53;25.60;93.40
5174;DHT22;2606;50.934;6.934;2022-09-13T17:05:20;25.60;94.00
5174;DHT22;2606;50.934;6.934;2022-09-13T17:07:45;25.50;94.80
5174;DHT22;2606;50.934;6.934;2022-09-13T17:10:11;25.40;95.60
5174;DHT22;2606;50.934;6.934;2022-09-13T17:12:37;25.30;95.70
5174;DHT22;2606;50.934;6.934;2022-09-13T17:15:03;25.20;96.30
5174;DHT22;2606;50.934;6.934;2022-09-13T17:17:29;25.10;96.80
5174;DHT22;2606;50.934;6.934;2022-09-13T17:20:03;25.00;97.10
5174;DHT22;2606;50.934;6.934;2022-09-13T17:22:30;25.00;97.50
5174;DHT22;2606;50.934;6.934;2022-09-13T17:24:58;24.80;97.90
5174;DHT22;2606;50.934;6.934;2022-09-13T17:27:23;24.80;98.20
5174;DHT22;2606;50.934;6.934;2022-09-13T17:29:49;24.70;98.50
5174;DHT22;2606;50.934;6.934;2022-09-13T17:32:14;24.60;98.70
5174;DHT22;2606;50.934;6.934;2022-09-13T17:34:40;24.60;98.90
5174;DHT22;2606;50.934;6.934;2022-09-13T17:37:06;24.50;99.10
5174;DHT22;2606;50.934;6.934;2022-09-13T17:39:31;24.50;99.40
5174;DHT22;2606;50.934;6.934;2022-09-13T17:41:57;24.50;99.90
5174;DHT22;2606;50.934;6.934;2022-09-13T17:44:23;24.40;99.90
5174;DHT22;2606;50.934;6.934;2022-09-13T17:46:49;24.30;99.90
5174;DHT22;2606;50.934;6.934;2022-09-13T17:49:14;24.30;99.90
5174;DHT22;2606;50.934;6.934;2022-09-13T17:51:40;24.20;99.90
5174;DHT22;2606;50.934;6.934;2022-09-13T17:54:07;24.10;99.90
5174;DHT22;2606;50.934;6.934;2022-09-13T17:56:39;24.00;99.90
5174;DHT22;2606;50.934;6.934;2022-09-13T18:01:35;23.90;99.90
5174;DHT22;2606;50.934;6.934;2022-09-13T18:04:01;23.80;99.90
5174;DHT22;2606;50.934;6.934;2022-09-13T18:06:27;23.70;99.90
5174;DHT22;2606;50.934;6.934;2022-09-13T18:08:52;23.60;99.90
5174;DHT22;2606;50.934;6.934;2022-09-13T18:11:19;23.60;99.90
5174;DHT22;2606;50.934;6.934;2022-09-13T18:13:46;23.60;99.90
5174;DHT22;2606;50.934;6.934;2022-09-13T18:16:18;23.50;99.90
5174;DHT22;2606;50.934;6.934;2022-09-13T18:18:44;23.40;99.90
5174;DHT22;2606;50.934;6.934;2022-09-13T18:21:11;23.30;99.90
5174;DHT22;2606;50.934;6.934;2022-09-13T18:23:39;23.20;99.90
5174;DHT22;2606;50.934;6.934;2022-09-13T18:26:10;23.10;99.90
5174;DHT22;2606;50.934;6.934;2022-09-13T18:28:37;23.00;99.90
5174;DHT22;2606;50.934;6.934;2022-09-13T18:31:04;23.00;99.90
5174;DHT22;2606;50.934;6.934;2022-09-13T18:33:33;22.90;99.90
5174;DHT22;2606;50.934;6.934;2022-09-13T18:38:38;22.70;99.90
5174;DHT22;2606;50.934;6.934;2022-09-13T18:41:09;22.60;99.90
5174;DHT22;2606;50.934;6.934;2022-09-13T18:43:36;22.40;99.90
5174;DHT22;2606;50.934;6.934;2022-09-13T18:46:05;22.40;99.90
5174;DHT22;2606;50.934;6.934;2022-09-13T18:48:33;22.30;99.90
5174;DHT22;2606;50.934;6.934;2022-09-13T18:50:59;22.20;99.90
5174;DHT22;2606;50.934;6.934;2022-09-13T18:53:25;22.10;99.90
5174;DHT22;2606;50.934;6.934;2022-09-13T18:55:51;22.10;99.90
5174;DHT22;2606;50.934;6.934;2022-09-13T18:58:17;21.90;99.90
5174;DHT22;2606;50.934;6.934;2022-09-13T19:00:43;21.90;99.90
5174;DHT22;2606;50.934;6.934;2022-09-13T19:03:09;21.80;99.90
5174;DHT22;2606;50.934;6.934;2022-09-13T19:05:36;21.80;99.90
5174;DHT22;2606;50.934;6.934;2022-09-13T19:08:07;21.70;99.90
5174;DHT22;2606;50.934;6.934;2022-09-13T19:10:33;21.60;99.90
5174;DHT22;2606;50.934;6.934;2022-09-13T19:12:59;21.50;99.90
5174;DHT22;2606;50.934;6.934;2022-09-13T19:15:24;21.50;99.90
5174;DHT22;2606;50.934;6.934;2022-09-13T19:17:50;21.50;99.90
5174;DHT22;2606;50.934;6.934;2022-09-13T19:20:15;21.50;99.90
5174;DHT22;2606;50.934;6.934;2022-09-13T19:22:43;21.40;99.90
5174;DHT22;2606;50.934;6.934;2022-09-13T19:25:09;21.40;99.90
5174;DHT22;2606;50.934;6.934;2022-09-13T19:27:35;21.40;99.90
5174;DHT22;2606;50.934;6.934;2022-09-13T19:30:00;21.40;99.90
5174;DHT22;2606;50.934;6.934;2022-09-13T19:32:27;21.40;99.90
5174;DHT22;2606;50.934;6.934;2022-09-13T19:34:52;21.30;99.90
5174;DHT22;2606;50.934;6.934;2022-09-13T19:37:18;21.30;99.90
5174;DHT22;2606;50.934;6.934;2022-09-13T19:39:44;21.30;99.90
5174;DHT22;2606;50.934;6.934;2022-09-13T19:42:11;21.30;99.90
5174;DHT22;2606;50.934;6.934;2022-09-13T19:44:51;21.30;99.90
5174;DHT22;2606;50.934;6.934;2022-09-13T19:47:17;21.30;99.90
5174;DHT22;2606;50.934;6.934;2022-09-13T19:49:42;21.30;99.90